Terminal Aerodrome Forecast
Issued by NWS

Home | Current Version | Previous Version | Text Only | Print | Product List | Glossary On
Versions: 1 2 3 4 5 6 7 8 9 10 11 12 13 14 15 16 17
000
FTUS43 KABR 020203 AAA
TAFMBG
TAF AMD
KMBG 020203Z 0202/0224 VRB06KT P6SM SKC
     FM021000 34007KT P6SM SKC
     FM021600 35015G22KT P6SM SKC=

USA.gov is the U.S. government's official web portal to all federal, state and local government web resources and services.